Time;durP1;ratioP1;P1;durP2;ratioP2;P2;SDS_P1;SDS_P2;PMS_P1;PMS_P2;Temp;Humidity;BMP_temperature;BMP_pressure;BME280_temperature;BME280_humidity;BME280_pressure;Samples;Min_cycle;Max_cycle;Signal;HPM_P1;HPM_P2
2023/08/28 00:00:38;;;;;;;;;;;16.70;86.90;;;15.20;100.00;95645.63;4952585;28;20429;-67
2023/08/28 00:03:04;;;;;;;;;;;16.60;86.90;;;15.22;100.00;95640.09;4954059;28;20020;-67
2023/08/28 00:05:30;;;;;;;;;;;16.70;86.80;;;15.22;100.00;95637.44;4953298;28;19914;-67
2023/08/28 00:07:56;;;;;;;;;;;16.60;86.90;;;15.20;100.00;95637.69;4983382;28;19914;-67
2023/08/28 00:10:22;;;;;;;;;;;16.70;86.80;;;15.19;100.00;95633.41;4971168;28;20281;-67
2023/08/28 00:12:48;;;;;;;;;;;16.70;86.90;;;15.19;100.00;95628.13;4965717;28;19949;-68
2023/08/28 00:15:14;;;;;;;;;;;16.70;86.80;;;15.20;100.00;95613.84;4951205;28;20377;-67
2023/08/28 00:17:39;;;;;;;;;;;16.70;86.70;;;15.19;100.00;95604.28;4966846;28;19914;-67
2023/08/28 00:20:08;;;;;;;;;;;16.70;86.80;;;15.21;100.00;95607.50;4982708;28;19910;-67
2023/08/28 00:22:37;;;;;;;;;;;16.70;86.70;;;15.21;100.00;95596.91;4955233;28;20008;-68
2023/08/28 00:25:03;;;;;;;;;;;16.70;86.60;;;15.20;100.00;95586.53;4966257;28;19914;-68
2023/08/28 00:27:29;;;;;;;;;;;16.70;86.50;;;15.19;100.00;95583.06;4956020;28;19914;-67
2023/08/28 00:29:55;;;;;;;;;;;16.70;86.40;;;15.18;100.00;95565.56;4973902;28;19914;-67
2023/08/28 00:32:20;;;;;;;;;;;16.70;86.60;;;15.19;100.00;95567.19;4973661;28;19932;-67
2023/08/28 00:34:47;;;;;;;;;;;16.70;86.50;;;15.18;100.00;95568.22;4970858;28;19913;-67
2023/08/28 00:37:12;;;;;;;;;;;16.70;86.50;;;15.19;100.00;95575.13;4970566;28;19968;-68
2023/08/28 00:39:38;;;;;;;;;;;16.70;86.50;;;15.18;100.00;95565.56;4955744;28;19914;-66
2023/08/28 00:42:04;;;;;;;;;;;16.70;86.40;;;15.18;100.00;95570.88;4972416;28;19914;-68
2023/08/28 00:44:30;;;;;;;;;;;16.70;86.50;;;15.18;100.00;95570.06;4973154;28;19914;-66
2023/08/28 00:46:56;;;;;;;;;;;16.70;86.30;;;15.17;100.00;95574.56;4970813;28;19945;-67
2023/08/28 00:49:21;;;;;;;;;;;16.70;86.30;;;15.18;100.00;95581.47;4970648;28;19921;-67
2023/08/28 00:51:47;;;;;;;;;;;16.70;86.60;;;15.19;100.00;95593.69;4955974;28;19914;-67
2023/08/28 00:54:13;;;;;;;;;;;16.70;86.80;;;15.20;100.00;95592.63;4970530;28;20381;-67
2023/08/28 00:56:39;;;;;;;;;;;16.80;86.60;;;15.21;100.00;95599.53;4970448;28;20016;-67
2023/08/28 00:59:05;;;;;;;;;;;16.80;86.60;;;15.21;100.00;95596.09;4971988;28;19914;-67
2023/08/28 01:01:30;;;;;;;;;;;16.70;86.50;;;15.19;100.00;95598.16;4953976;28;19917;-67
2023/08/28 01:03:56;;;;;;;;;;;16.70;86.30;;;15.17;100.00;95606.34;4971828;28;19989;-67
2023/08/28 01:06:28;;;;;;;;;;;16.70;86.40;;;15.18;100.00;95602.66;4954117;28;20364;-67
2023/08/28 01:09:29;;;;;;;;;;;16.70;86.50;;;15.19;100.00;95604.28;4953545;28;19918;-67
2023/08/28 01:12:26;;;;;;;;;;;16.70;86.60;;;15.20;100.00;95599.78;4966754;28;19949;-67
2023/08/28 01:15:07;;;;;;;;;;;16.70;86.40;;;15.18;100.00;95594.72;4972238;28;19910;-67
2023/08/28 01:17:32;;;;;;;;;;;16.70;86.60;;;15.18;100.00;95592.06;4955168;28;19948;-67
2023/08/28 01:19:58;;;;;;;;;;;16.70;86.40;;;15.17;100.00;95585.16;4955361;28;20319;-67
2023/08/28 01:22:55;;;;;;;;;;;16.70;86.40;;;15.17;100.00;95589.66;4953770;28;19910;-66
2023/08/28 01:25:24;;;;;;;;;;;16.70;86.40;;;15.16;100.00;95588.84;4973150;28;19921;-67
2023/08/28 01:27:49;;;;;;;;;;;16.70;86.40;;;15.16;100.00;95594.13;4968866;28;19914;-68
2023/08/28 01:30:15;;;;;;;;;;;16.70;86.40;;;15.15;100.00;95603.09;4970202;28;19914;-67
2023/08/28 01:32:42;;;;;;;;;;;16.60;86.50;;;15.14;100.00;95593.53;4954405;28;20205;-67
2023/08/28 01:35:09;;;;;;;;;;;16.70;86.50;;;15.14;100.00;95590.06;4968892;28;19918;-67
2023/08/28 01:37:44;;;;;;;;;;;16.60;86.50;;;15.14;100.00;95596.19;4969276;28;19936;-67
2023/08/28 01:40:09;;;;;;;;;;;16.60;86.60;;;15.12;100.00;95589.50;4954520;28;19910;-67
2023/08/28 01:42:35;;;;;;;;;;;16.60;86.50;;;15.10;100.00;95595.03;4972334;28;19960;-67
2023/08/28 01:45:01;;;;;;;;;;;16.60;86.40;;;15.09;100.00;95588.13;4936513;28;19937;-67
2023/08/28 01:47:27;;;;;;;;;;;16.60;86.50;;;15.09;100.00;95589.97;4986099;28;19968;-66
2023/08/28 01:49:53;;;;;;;;;;;16.60;86.50;;;15.09;100.00;95577.53;4971325;28;19914;-66
2023/08/28 01:52:19;;;;;;;;;;;16.60;86.60;;;15.09;100.00;95571.44;4958704;28;19993;-67
2023/08/28 01:54:45;;;;;;;;;;;16.60;86.40;;;15.06;100.00;95572.69;4969729;28;20135;-67
2023/08/28 01:57:10;;;;;;;;;;;16.60;86.20;;;15.06;100.00;95569.25;4970646;28;19914;-67
2023/08/28 01:59:36;;;;;;;;;;;16.60;86.10;;;15.06;100.00;95561.28;4971551;28;20274;-67
2023/08/28 02:02:02;;;;;;;;;;;16.60;86.40;;;15.06;100.00;95566.59;4986556;28;19921;-67
2023/08/28 02:04:27;;;;;;;;;;;16.60;86.40;;;15.05;100.00;95565.78;4953035;28;19918;-67
2023/08/28 02:06:53;;;;;;;;;;;16.60;86.40;;;15.05;100.00;95570.28;4969649;28;19922;-67
2023/08/28 02:09:18;;;;;;;;;;;16.60;86.50;;;15.05;100.00;95567.63;4985113;28;20686;-67
2023/08/28 02:11:45;;;;;;;;;;;16.60;86.40;;;15.04;100.00;95569.47;4953073;28;19910;-67
2023/08/28 02:14:10;;;;;;;;;;;16.50;85.90;;;15.02;100.00;95571.53;4970461;28;20406;-67
2023/08/28 02:16:38;;;;;;;;;;;16.60;86.10;;;15.04;100.00;95564.16;4954120;28;19918;-67
2023/08/28 02:19:04;;;;;;;;;;;16.60;86.20;;;15.03;100.00;95557.25;4968810;28;19925;-67
2023/08/28 02:21:30;;;;;;;;;;;16.60;86.20;;;15.04;100.00;95553.56;4970156;28;20044;-67
2023/08/28 02:23:56;;;;;;;;;;;16.60;86.10;;;15.01;100.00;95544.25;4969862;28;19960;-66
2023/08/28 02:26:24;;;;;;;;;;;16.60;86.20;;;15.02;100.00;95529.16;4984979;28;19918;-67
2023/08/28 02:28:50;;;;;;;;;;;16.50;86.10;;;15.01;100.00;95528.38;4969091;28;20383;-67
2023/08/28 02:31:15;;;;;;;;;;;16.60;86.20;;;15.00;100.00;95523.28;4970002;28;19960;-67
2023/08/28 02:33:41;;;;;;;;;;;16.60;86.20;;;15.00;100.00;95525.94;4970886;28;20292;-67
2023/08/28 02:36:07;;;;;;;;;;;16.60;86.10;;;15.00;100.00;95515.34;4966090;28;19913;-67
2023/08/28 02:38:33;;;;;;;;;;;16.60;86.10;;;14.99;100.00;95514.53;4966242;28;20013;-67
2023/08/28 02:41:04;;;;;;;;;;;16.60;86.10;;;15.00;100.00;95516.16;4970331;28;19914;-67
2023/08/28 02:43:30;;;;;;;;;;;16.50;86.20;;;14.99;100.00;95508.44;4968752;28;20415;-66
2023/08/28 02:45:55;;;;;;;;;;;16.50;86.10;;;14.98;100.00;95506.84;4969659;28;19918;-67
2023/08/28 02:48:21;;;;;;;;;;;16.50;86.20;;;14.99;100.00;95508.44;4956572;28;20397;-67
2023/08/28 02:50:50;;;;;;;;;;;16.50;86.00;;;14.97;100.00;95506.03;4969832;28;19914;-66
2023/08/28 02:53:16;;;;;;;;;;;16.50;85.70;;;14.95;100.00;95502.00;4963560;28;19921;-67
2023/08/28 02:55:41;;;;;;;;;;;16.50;85.90;;;14.95;100.00;95492.22;4953106;28;19921;-67
2023/08/28 02:58:07;;;;;;;;;;;16.50;86.00;;;14.95;100.00;95494.06;4984239;28;19914;-68
2023/08/28 03:00:34;;;;;;;;;;;16.40;86.10;;;14.93;100.00;95491.63;4969921;28;19914;-67
2023/08/28 03:03:00;;;;;;;;;;;16.50;86.10;;;14.91;100.00;95496.34;4970120;28;19914;-67
2023/08/28 03:05:27;;;;;;;;;;;16.40;85.90;;;14.90;100.00;95504.50;4970855;28;20365;-67
2023/08/28 03:07:52;;;;;;;;;;;16.40;86.00;;;14.88;100.00;95496.81;4967513;28;19980;-67
2023/08/28 03:10:18;;;;;;;;;;;16.40;85.90;;;14.86;100.00;95492.78;4970650;28;19918;-67
2023/08/28 03:12:43;;;;;;;;;;;16.30;86.10;;;14.85;100.00;95489.31;4984717;28;19910;-67
2023/08/28 03:15:09;;;;;;;;;;;16.40;86.00;;;14.85;100.00;95496.47;4966552;28;19988;-67
2023/08/28 03:17:35;;;;;;;;;;;16.40;85.90;;;14.84;100.00;95494.84;4969297;28;19963;-68
2023/08/28 03:20:01;;;;;;;;;;;16.40;86.00;;;14.83;100.00;95493.22;4968138;28;19967;-67
2023/08/28 03:22:26;;;;;;;;;;;16.40;86.10;;;14.82;100.00;95499.56;4968110;28;19945;-67
2023/08/28 03:24:52;;;;;;;;;;;16.40;86.30;;;14.82;100.00;95499.56;4968456;28;19914;-66
2023/08/28 03:27:21;;;;;;;;;;;16.40;86.10;;;14.81;100.00;95497.97;4951754;28;19928;-67
2023/08/28 03:29:46;;;;;;;;;;;16.40;86.10;;;14.83;100.00;95503.81;4969448;28;20016;-67
2023/08/28 03:32:12;;;;;;;;;;;16.40;86.20;;;14.82;100.00;95502.22;4953930;28;20337;-67
2023/08/28 03:34:38;;;;;;;;;;;16.40;85.90;;;14.83;100.00;95504.63;4970981;28;19922;-66
2023/08/28 03:37:04;;;;;;;;;;;16.40;86.10;;;14.84;100.00;95510.72;4968597;28;19914;-66
2023/08/28 03:39:29;;;;;;;;;;;16.40;86.00;;;14.83;100.00;95509.13;4970051;28;20049;-67
2023/08/28 03:41:55;;;;;;;;;;;16.40;85.80;;;14.84;100.00;95510.72;4969611;28;19975;-67
2023/08/28 03:44:21;;;;;;;;;;;16.40;85.80;;;14.82;100.00;95510.97;4965974;28;19917;-67
2023/08/28 03:46:46;;;;;;;;;;;16.40;85.90;;;14.83;100.00;95511.78;4970777;28;19925;-67
2023/08/28 03:49:12;;;;;;;;;;;16.40;86.10;;;14.84;100.00;95505.44;4968565;28;20336;-67
2023/08/28 03:51:37;;;;;;;;;;;16.40;86.20;;;14.85;100.00;95509.69;4968403;28;19921;-66
2023/08/28 03:54:06;;;;;;;;;;;16.40;86.20;;;14.85;100.00;95517.63;4968844;28;19922;-67
2023/08/28 03:56:31;;;;;;;;;;;16.40;86.30;;;14.83;100.00;95509.13;4968307;28;19910;-67
2023/08/28 03:58:57;;;;;;;;;;;16.40;86.30;;;14.83;100.00;95514.41;4969196;28;19982;-67
2023/08/28 04:01:23;;;;;;;;;;;16.50;86.30;;;14.84;100.00;95513.38;4969945;28;19914;-67
2023/08/28 04:03:48;;;;;;;;;;;16.40;86.20;;;14.84;100.00;95500.13;4967960;28;19930;-67
2023/08/28 04:06:14;;;;;;;;;;;16.40;86.20;;;14.83;100.00;95498.53;4968366;28;19914;-66
2023/08/28 04:08:40;;;;;;;;;;;16.40;86.20;;;14.82;100.00;95487.13;4967964;28;19967;-66
2023/08/28 04:11:08;;;;;;;;;;;16.40;86.30;;;14.84;100.00;95485.06;4935641;28;19921;-67
2023/08/28 04:13:33;;;;;;;;;;;16.40;86.40;;;14.85;100.00;95483.22;4985606;28;19977;-67
2023/08/28 04:15:59;;;;;;;;;;;16.40;86.40;;;14.85;100.00;95470.78;4984358;28;19921;-68
2023/08/28 04:18:25;;;;;;;;;;;16.40;86.40;;;14.85;100.00;95475.28;4969795;28;19910;-68
2023/08/28 04:20:51;;;;;;;;;;;16.40;86.20;;;14.83;100.00;95472.84;4969006;28;19914;-68
2023/08/28 04:23:17;;;;;;;;;;;16.40;86.50;;;14.83;100.00;95466.75;4968372;28;19933;-68
2023/08/28 04:25:43;;;;;;;;;;;16.40;86.50;;;14.83;100.00;95461.47;4955079;28;19949;-68
2023/08/28 04:28:08;;;;;;;;;;;16.40;86.40;;;14.82;100.00;95460.66;4970326;28;19910;-68
2023/08/28 04:30:34;;;;;;;;;;;16.40;86.30;;;14.83;100.00;95445.56;4969787;28;19968;-68
2023/08/28 04:33:00;;;;;;;;;;;16.40;86.20;;;14.82;100.00;95428.09;4952989;28;19914;-67
2023/08/28 04:35:25;;;;;;;;;;;16.30;86.30;;;14.80;100.00;95425.66;4970958;28;20377;-66
2023/08/28 04:37:51;;;;;;;;;;;16.30;86.40;;;14.79;100.00;95420.59;4963493;28;19957;-68
2023/08/28 04:40:17;;;;;;;;;;;16.30;86.30;;;14.76;100.00;95421.06;4969280;28;19914;-68
2023/08/28 04:42:42;;;;;;;;;;;16.30;86.30;;;14.75;100.00;95432.69;4968158;28;19914;-71
2023/08/28 04:45:08;;;;;;;;;;;16.20;86.20;;;14.73;100.00;95426.84;4966557;28;19925;-72
2023/08/28 04:47:34;;;;;;;;;;;16.20;86.20;;;14.70;100.00;95434.16;4966259;28;19914;-68
2023/08/28 04:50:00;;;;;;;;;;;16.20;86.40;;;14.69;100.00;95435.22;4971502;28;19980;-69
2023/08/28 04:52:25;;;;;;;;;;;16.20;86.40;;;14.68;100.00;95433.59;4969155;28;19917;-69
2023/08/28 04:54:51;;;;;;;;;;;16.20;86.60;;;14.68;100.00;95423.00;4935154;28;19913;-69
2023/08/28 04:57:17;;;;;;;;;;;16.20;86.40;;;14.67;100.00;95410.00;4967925;28;19910;-69
2023/08/28 04:59:42;;;;;;;;;;;16.20;86.00;;;14.67;100.00;95416.09;4985598;28;19916;-68
2023/08/28 05:02:08;;;;;;;;;;;16.20;86.20;;;14.66;100.00;95426.94;4984036;28;19926;-69
2023/08/28 05:04:33;;;;;;;;;;;16.20;86.00;;;14.66;100.00;95422.44;4967842;28;19914;-69
2023/08/28 05:06:59;;;;;;;;;;;16.20;86.20;;;14.66;100.00;95424.28;4985082;28;20320;-69
2023/08/28 05:09:25;;;;;;;;;;;16.20;86.40;;;14.68;100.00;95417.72;4955180;28;19921;-69
2023/08/28 05:11:50;;;;;;;;;;;16.30;86.50;;;14.69;100.00;95424.63;4969502;28;19961;-68
2023/08/28 05:14:16;;;;;;;;;;;16.30;86.30;;;14.72;100.00;95412.00;4972348;28;19914;-68
2023/08/28 05:16:42;;;;;;;;;;;16.30;86.20;;;14.73;100.00;95414.41;4971147;28;19968;-69
2023/08/28 05:19:10;;;;;;;;;;;16.30;86.40;;;14.76;100.00;95423.72;4953946;28;19921;-68
2023/08/28 05:21:35;;;;;;;;;;;16.40;86.10;;;14.78;100.00;95416.34;4973984;28;19930;-69
2023/08/28 05:24:01;;;;;;;;;;;16.40;86.20;;;14.79;100.00;95407.38;4971904;28;19914;-68
2023/08/28 05:26:27;;;;;;;;;;;16.40;86.10;;;14.79;100.00;95402.06;4973625;28;19964;-69
2023/08/28 05:28:52;;;;;;;;;;;16.40;86.00;;;14.80;100.00;95403.69;4957311;28;19918;-69
2023/08/28 05:31:18;;;;;;;;;;;16.40;86.10;;;14.82;100.00;95391.03;4938900;28;20385;-68
2023/08/28 05:33:44;;;;;;;;;;;16.40;86.30;;;14.82;100.00;95375.13;4970550;28;19913;-68
2023/08/28 05:36:09;;;;;;;;;;;16.40;86.20;;;14.81;100.00;95362.94;4953935;28;19921;-69
2023/08/28 05:38:35;;;;;;;;;;;16.30;86.00;;;14.79;100.00;95359.72;4965892;28;19938;-67
2023/08/28 05:41:00;;;;;;;;;;;16.30;86.30;;;14.76;100.00;95370.78;4954273;28;20303;-67
2023/08/28 05:43:26;;;;;;;;;;;16.30;86.30;;;14.74;100.00;95367.56;4970618;28;19917;-69
2023/08/28 05:45:52;;;;;;;;;;;16.20;86.30;;;14.73;100.00;95365.94;4957001;28;19918;-67
2023/08/28 05:48:17;;;;;;;;;;;16.20;86.40;;;14.70;100.00;95367.19;4971906;28;20337;-68
2023/08/28 05:50:44;;;;;;;;;;;16.20;86.40;;;14.67;100.00;95360.53;4972405;28;19917;-68
2023/08/28 05:53:09;;;;;;;;;;;16.10;86.60;;;14.66;100.00;95366.06;4971507;28;20018;-68
2023/08/28 05:55:35;;;;;;;;;;;16.10;86.70;;;14.63;100.00;95356.75;4971908;28;19910;-68
2023/08/28 05:58:01;;;;;;;;;;;16.10;86.50;;;14.61;100.00;95348.22;4971537;28;19920;-67
2023/08/28 06:00:28;;;;;;;;;;;16.10;86.80;;;14.60;100.00;95345.81;4972132;28;20007;-67
2023/08/28 06:02:54;;;;;;;;;;;16.10;86.90;;;14.60;100.00;95320.16;4970384;28;20376;-66
2023/08/28 06:05:19;;;;;;;;;;;16.10;86.70;;;14.58;100.00;95290.47;4956132;28;19913;-67
2023/08/28 06:07:45;;;;;;;;;;;16.10;86.60;;;14.56;100.00;95260.78;4969934;28;19917;-69
2023/08/28 06:10:12;;;;;;;;;;;16.10;86.70;;;14.57;100.00;95241.22;4969366;28;19921;-73
2023/08/28 06:12:38;;;;;;;;;;;16.00;86.70;;;14.55;100.00;95227.44;4955551;28;20385;-70
2023/08/28 06:15:05;;;;;;;;;;;16.00;86.80;;;14.53;100.00;95248.03;4970254;28;19918;-71
2023/08/28 06:17:30;;;;;;;;;;;16.00;87.10;;;14.53;100.00;95266.56;4954921;28;19914;-73
2023/08/28 06:19:56;;;;;;;;;;;16.10;86.90;;;14.53;100.00;95277.13;4972473;28;19921;-71
2023/08/28 06:22:21;;;;;;;;;;;16.00;86.50;;;14.53;100.00;95279.78;4970009;28;20373;-73
2023/08/28 06:24:52;;;;;;;;;;;16.10;86.60;;;14.54;100.00;95293.81;4969575;28;19918;-72
2023/08/28 06:27:18;;;;;;;;;;;16.00;86.50;;;14.54;100.00;95291.19;4972208;23;20148;-71
2023/08/28 06:29:44;;;;;;;;;;;16.10;86.50;;;14.54;100.00;95294.63;4925007;29;19941;-71
2023/08/28 06:32:09;;;;;;;;;;;16.10;86.30;;;14.54;100.00;95304.41;4930244;28;20259;-70
2023/08/28 06:34:35;;;;;;;;;;;16.00;86.40;;;14.51;100.00;95299.59;4932151;29;19921;-69
2023/08/28 06:37:01;;;;;;;;;;;16.00;86.60;;;14.52;100.00;95306.47;4930912;29;20301;-69
2023/08/28 06:39:27;;;;;;;;;;;16.00;86.70;;;14.54;100.00;95312.34;4932000;29;19918;-68
2023/08/28 06:41:52;;;;;;;;;;;16.00;86.80;;;14.53;100.00;95327.41;4932241;29;19922;-73
2023/08/28 06:44:18;;;;;;;;;;;16.10;86.90;;;14.56;100.00;95324.31;4932041;29;19914;-75
2023/08/28 06:46:44;;;;;;;;;;;16.10;86.80;;;14.57;100.00;95331.22;4930937;29;19926;-72
2023/08/28 06:49:09;;;;;;;;;;;16.10;86.30;;;14.61;100.00;95321.75;4934165;29;19915;-72
2023/08/28 06:51:35;;;;;;;;;;;16.20;86.30;;;14.60;100.00;95320.16;4932455;29;20424;-74
2023/08/28 06:54:01;;;;;;;;;;;16.20;86.40;;;14.64;100.00;95316.00;4915309;29;20259;-74
2023/08/28 06:56:26;;;;;;;;;;;16.30;86.30;;;14.67;100.00;95320.00;4915822;29;19914;-77
2023/08/28 06:58:52;;;;;;;;;;;16.30;86.30;;;14.69;100.00;95313.44;4931948;29;19940;-70
2023/08/28 07:01:18;;;;;;;;;;;16.20;86.00;;;14.70;100.00;95299.19;4932750;29;20398;-73
2023/08/28 07:03:43;;;;;;;;;;;16.20;86.20;;;14.70;100.00;95307.13;4932273;29;19965;-73
2023/08/28 07:06:09;;;;;;;;;;;16.30;86.40;;;14.73;100.00;95307.72;4932456;29;19921;-75
2023/08/28 07:08:34;;;;;;;;;;;16.30;86.10;;;14.72;100.00;95291.03;4931258;29;19915;-77
2023/08/28 07:11:00;;;;;;;;;;;16.20;86.10;;;14.69;100.00;95284.31;4931940;29;19914;-73
2023/08/28 07:13:27;;;;;;;;;;;16.20;86.30;;;14.70;100.00;95291.22;4935150;29;19915;-78
2023/08/28 07:15:53;;;;;;;;;;;16.30;86.60;;;14.71;100.00;95305.31;4931404;29;20318;-70
2023/08/28 07:18:18;;;;;;;;;;;16.30;86.50;;;14.74;100.00;95312.78;4914896;29;19921;-73
2023/08/28 07:20:44;;;;;;;;;;;16.30;86.20;;;14.74;100.00;95296.09;4931313;29;19919;-70
2023/08/28 07:23:10;;;;;;;;;;;16.30;86.20;;;14.77;100.00;95287.66;4945209;28;19914;-69
2023/08/28 07:25:35;;;;;;;;;;;16.40;86.80;;;14.80;100.00;95292.50;4915925;29;19953;-73
2023/08/28 07:28:04;;;;;;;;;;;16.40;86.40;;;14.80;100.00;95295.13;4931521;29;19923;-74
2023/08/28 07:30:29;;;;;;;;;;;16.40;85.90;;;14.82;100.00;95301.00;4915596;29;19938;-76
2023/08/28 07:32:55;;;;;;;;;;;16.40;85.70;;;14.82;100.00;95301.00;4933777;29;20378;-76
2023/08/28 07:35:21;;;;;;;;;;;16.40;85.60;;;14.83;100.00;95307.91;4933866;29;19914;-76
2023/08/28 07:37:46;;;;;;;;;;;16.40;85.70;;;14.85;100.00;95311.13;4925547;29;19921;-76
2023/08/28 07:40:12;;;;;;;;;;;16.50;85.30;;;14.84;100.00;95309.50;4931056;29;19918;-77
2023/08/28 07:42:38;;;;;;;;;;;16.40;84.70;;;14.82;100.00;95301.00;4929575;29;19919;-71
2023/08/28 07:45:04;;;;;;;;;;;16.40;85.10;;;14.82;100.00;95287.75;4913948;29;19982;-71
2023/08/28 07:47:29;;;;;;;;;;;16.40;84.80;;;14.83;100.00;95281.44;4930190;29;20473;-72
2023/08/28 07:49:55;;;;;;;;;;;16.40;84.90;;;14.85;100.00;95266.09;4932009;29;20005;-75
2023/08/28 07:52:21;;;;;;;;;;;16.50;84.80;;;14.87;100.00;95246.28;4916028;29;19919;-74
2023/08/28 07:54:46;;;;;;;;;;;16.50;84.40;;;14.90;100.00;95242.38;4930001;29;19914;-72
2023/08/28 07:57:12;;;;;;;;;;;16.50;84.00;;;14.94;100.00;95246.97;4918737;29;19915;-72
2023/08/28 07:59:39;;;;;;;;;;;16.60;84.10;;;14.95;100.00;95268.97;4930004;29;19919;-71
2023/08/28 08:02:04;;;;;;;;;;;16.60;84.10;;;14.97;100.00;95288.06;4931806;29;20310;-73
2023/08/28 08:04:31;;;;;;;;;;;16.60;84.40;;;15.00;100.00;95308.78;4933436;28;19914;-72
2023/08/28 08:06:56;;;;;;;;;;;16.60;84.30;;;14.99;100.00;95315.91;4929676;29;19919;-71
2023/08/28 08:09:22;;;;;;;;;;;16.60;83.70;;;14.99;100.00;95320.41;4930091;29;20320;-73
2023/08/28 08:11:48;;;;;;;;;;;16.60;84.00;;;14.98;100.00;95322.25;4924332;29;19918;-71
2023/08/28 08:14:14;;;;;;;;;;;16.60;83.90;;;14.99;100.00;95326.50;4933989;29;19914;-75
2023/08/28 08:16:39;;;;;;;;;;;16.60;83.80;;;14.99;100.00;95331.00;4933019;29;19922;-75
2023/08/28 08:19:05;;;;;;;;;;;16.60;83.40;;;14.99;100.00;95329.16;4931704;29;20306;-74
2023/08/28 08:21:31;;;;;;;;;;;16.60;82.90;;;14.98;100.00;95326.75;4934835;29;19915;-74
2023/08/28 08:23:57;;;;;;;;;;;16.60;83.30;;;14.98;100.00;95332.03;4931188;29;19915;-74
2023/08/28 08:26:22;;;;;;;;;;;16.60;83.70;;;14.99;100.00;95336.31;4915375;29;19914;-74
2023/08/28 08:28:48;;;;;;;;;;;16.60;83.40;;;14.98;100.00;95342.63;4930096;29;20035;-74
2023/08/28 08:31:14;;;;;;;;;;;16.60;83.70;;;14.98;100.00;95353.22;4931380;29;19919;-74
2023/08/28 08:33:39;;;;;;;;;;;16.60;83.70;;;14.99;100.00;95354.84;4929043;29;19925;-70
2023/08/28 08:36:05;;;;;;;;;;;16.60;84.10;;;15.04;100.00;95360.22;4930419;29;19981;-69
2023/08/28 08:38:31;;;;;;;;;;;16.70;84.50;;;15.07;100.00;95375.66;4928750;29;19914;-69
2023/08/28 08:40:58;;;;;;;;;;;16.70;84.00;;;15.08;100.00;95384.41;4930162;29;19914;-70
2023/08/28 08:43:25;;;;;;;;;;;16.80;84.40;;;15.10;100.00;95393.72;4934557;29;19997;-70
2023/08/28 08:45:55;;;;;;;;;;;16.80;83.80;;;15.14;100.00;95394.84;4932173;29;20382;-69
2023/08/28 08:48:22;;;;;;;;;;;16.80;83.90;;;15.15;100.00;95391.16;4935548;29;20417;-74
2023/08/28 08:50:48;;;;;;;;;;;16.90;83.60;;;15.19;100.00;95396.81;4918678;29;19949;-70
2023/08/28 08:53:22;;;;;;;;;;;16.90;83.70;;;15.20;100.00;95391.28;4918174;29;20346;-73
2023/08/28 08:55:47;;;;;;;;;;;17.00;83.60;;;15.25;100.00;95387.94;4934074;29;19914;-70
2023/08/28 08:58:14;;;;;;;;;;;17.00;83.00;;;15.28;100.00;95385.63;4917861;29;19929;-72
2023/08/28 09:00:43;;;;;;;;;;;17.10;83.00;;;15.38;100.00;95400.88;4916560;29;19921;-68
2023/08/28 09:03:09;;;;;;;;;;;17.20;82.60;;;15.42;100.00;95395.94;4897925;29;19966;-71
2023/08/28 09:05:35;;;;;;;;;;;17.20;82.20;;;15.48;100.00;95389.69;4919266;29;19942;-70
2023/08/28 09:08:03;;;;;;;;;;;17.30;82.30;;;15.50;100.00;95390.25;4930674;29;20338;-70
2023/08/28 09:10:30;;;;;;;;;;;17.30;82.00;;;15.54;100.00;95394.03;4900675;29;20030;-71
2023/08/28 09:12:56;;;;;;;;;;;17.30;82.20;;;15.56;100.00;95390.09;4931594;29;20445;-71
2023/08/28 09:15:21;;;;;;;;;;;17.30;81.90;;;15.63;100.00;95374.13;4934852;29;19914;-70
2023/08/28 09:17:47;;;;;;;;;;;17.50;81.20;;;15.67;100.00;95340.78;4916951;29;20034;-70
2023/08/28 09:20:16;;;;;;;;;;;17.60;81.10;;;15.72;100.00;95310.88;4932821;29;19922;-71
2023/08/28 09:22:49;;;;;;;;;;;17.60;80.90;;;15.82;100.00;95300.44;4932752;29;19915;-71
2023/08/28 09:25:16;;;;;;;;;;;17.80;81.00;;;15.88;100.00;95257.88;4933206;29;19914;-71
2023/08/28 09:27:45;;;;;;;;;;;17.80;80.40;;;15.91;100.00;95225.53;4917222;29;19915;-71
2023/08/28 09:30:37;;;;;;;;;;;17.80;80.60;;;15.97;100.00;95180.53;4934228;29;19914;-71
2023/08/28 09:33:04;;;;;;;;;;;17.80;80.30;;;15.99;100.00;95163.31;4932671;29;19965;-72
2023/08/28 09:35:36;;;;;;;;;;;17.80;80.40;;;16.08;100.00;95161.84;4935046;29;19915;-72
2023/08/28 09:38:02;;;;;;;;;;;18.10;79.60;;;16.19;100.00;95157.47;4911442;29;19930;-72
2023/08/28 09:40:32;;;;;;;;;;;18.40;79.30;;;16.31;100.00;95141.44;4933787;29;19941;-72
2023/08/28 09:42:58;;;;;;;;;;;18.50;79.00;;;16.42;100.00;95146.59;4902185;29;19926;-72
2023/08/28 09:45:33;;;;;;;;;;;18.60;78.60;;;16.54;100.00;95181.78;4933668;29;19926;-73
2023/08/28 09:47:59;;;;;;;;;;;18.70;78.80;;;16.71;100.00;95196.84;4913248;29;19911;-73
2023/08/28 09:50:28;;;;;;;;;;;19.10;77.60;;;16.93;100.00;95179.03;4934822;29;20062;-73
2023/08/28 09:52:53;;;;;;;;;;;19.50;76.00;;;17.21;100.00;95166.53;4931671;29;20377;-72
2023/08/28 09:55:19;;;;;;;;;;;20.10;75.00;;;17.42;100.00;95177.06;4934634;29;19915;-73
2023/08/28 09:57:45;;;;;;;;;;;20.10;74.50;;;17.56;100.00;95185.41;4932737;29;19930;-74
2023/08/28 10:00:12;;;;;;;;;;;20.10;74.60;;;17.67;100.00;95200.44;4934960;29;19919;-73
2023/08/28 10:02:38;;;;;;;;;;;20.10;74.60;;;17.77;100.00;95202.34;4934644;29;19914;-74
2023/08/28 10:05:05;;;;;;;;;;;20.10;74.40;;;17.83;100.00;95205.84;4917253;29;19958;-77
2023/08/28 10:07:31;;;;;;;;;;;20.00;73.20;;;17.90;100.00;95191.28;4937017;29;19922;-77
2023/08/28 10:09:57;;;;;;;;;;;20.20;72.80;;;18.00;100.00;95190.53;4934001;29;20070;-78
2023/08/28 10:12:23;;;;;;;;;;;20.30;73.00;;;18.08;100.00;95194.56;4917286;29;19918;-72
2023/08/28 10:14:49;;;;;;;;;;;20.40;73.40;;;18.15;100.00;95195.94;4917523;29;20446;-74
2023/08/28 10:17:15;;;;;;;;;;;20.50;73.40;;;18.25;100.00;95211.97;4916855;29;20009;-75
2023/08/28 10:20:09;;;;;;;;;;;20.60;72.70;;;18.41;100.00;95204.06;4917566;29;20383;-74
2023/08/28 10:22:35;;;;;;;;;;;20.90;72.20;;;18.52;100.00;95189.72;4931953;29;19918;-74
2023/08/28 10:25:00;;;;;;;;;;;20.90;71.90;;;18.60;100.00;95186.56;4914338;29;20339;-71
2023/08/28 10:27:26;;;;;;;;;;;21.10;70.90;;;18.74;100.00;95179.69;4901162;29;20383;-79
2023/08/28 10:29:54;;;;;;;;;;;21.20;71.20;;;18.80;100.00;95175.19;4904358;29;19918;-78
2023/08/28 10:32:20;;;;;;;;;;;21.20;70.70;;;18.84;100.00;95182.41;4919095;29;19958;-76
2023/08/28 10:34:46;;;;;;;;;;;21.20;70.60;;;18.91;100.00;95198.94;4915264;29;19911;-74
2023/08/28 10:37:13;;;;;;;;;;;21.10;70.90;;;18.94;100.00;95209.06;4928709;29;19957;-72
2023/08/28 10:39:42;;;;;;;;;;;21.00;70.70;;;18.95;100.00;95215.97;4930928;29;19923;-72
2023/08/28 10:42:09;;;;;;;;;;;21.00;71.50;;;18.95;100.00;95208.00;4934550;29;19958;-72
2023/08/28 10:44:35;;;;;;;;;;;21.00;69.60;;;19.04;100.00;95200.31;4932762;29;19911;-74
2023/08/28 10:47:00;;;;;;;;;;;21.30;68.40;;;19.28;100.00;95171.28;4934177;29;19954;-76
2023/08/28 10:49:26;;;;;;;;;;;22.30;67.40;;;19.67;100.00;95152.88;4933028;29;19921;-76
2023/08/28 10:52:00;;;;;;;;;;;23.40;65.40;;;20.00;100.00;95143.47;4931897;29;20360;-74
2023/08/28 10:54:25;;;;;;;;;;;23.10;64.50;;;20.18;100.00;95145.56;4931588;29;19922;-70
2023/08/28 10:56:53;;;;;;;;;;;23.10;64.00;;;20.33;100.00;95149.22;4914969;29;19921;-69
2023/08/28 10:59:18;;;;;;;;;;;23.30;64.30;;;20.45;100.00;95157.78;4930961;29;19915;-72
2023/08/28 11:02:02;;;;;;;;;;;23.20;64.50;;;20.50;99.46;95165.75;4932033;29;19921;-72
2023/08/28 11:04:35;;;;;;;;;;;23.00;63.70;;;20.49;97.21;95174.84;4930254;29;19914;-72
2023/08/28 11:07:02;;;;;;;;;;;22.70;63.10;;;20.51;97.48;95175.38;4931973;29;19961;-73